Hovedside
METAR-TAF:

METAR-TAF

Lufthavner :

Stockholm-Skavsta, Sverige

Skavsta lufthavn

breddegrad: 58-47N, lengdegrad: 016-55E, høyde over havet: 43 m

Gjeldene værobservasjon

Denne rapporten ble laget for 32 minutter siden, klokken 20:20 UTC
Vind 10 kt fra Nordvest
Temperatur 11°C
Luftfuktighet 62%
Trykk 1018 hPa
Sikt 10 km eller mer
ingen skyer under 1500 m og ingen bygeskyer

METAR: ESKN 262020Z 31010KT CAVOK 11/04 Q1018 R26/09//95

Tid: 22:52 (20:52 UTC)

Varsel

Denne rapporten ble laget for 3 timer og 22 minutter siden, klokken 17:30 UTC
Varsel gyldig fra 26. klokken 18 UTC til 27. klokken 18 UTC
Vind 10 kt fra Vest-nordvest
Sikt 10 km eller mer
ingen skyer under 1500 m og ingen bygeskyer
Blir
fra 27. klokken 11 UTC til 27. klokken 13 UTC
Vind 15 kt fra Vest med vindkast opp mot 25 kt

TAF: ESKN 261730Z 2618/2718 29010KT CAVOK BECMG 2711/2713 28015G25KT

Værobservasjoner og værvarsel for over 4000 flyplasser (METAR- og TAF-rapporter).

Tilgjengelige stasjoner er representert av de røde og gule prikkene på kartet.

Hold musepekeren over prikken for å se navnet på stasjonen.

Klikk så for å se værobservasjoner og -varsler.

For å forandre kartet kan du klikke på den grønne knappen med svart kryss for å zoome inn, på den grønne knappen med strek for å zoome ut, eller på de grønne pilene for å se tilstøtende kart.


METAR-TAF: